Hundvaag 1 weather for May 2002
Month no. 179
Obs.
Da.
Temp. Dew Point Precip. Wind
Speed
Wind gusts Cloud cover Press. Humidity Wind dir. Sunny OPT
01.05.2002 8,9   12,6     0 998,7        
02.05.2002 6,8   5,0     4 1008,0     1  
03.05.2002 7,7   1,1     0 1012,9     1  
04.05.2002 6,7   0,2     10 1017,0     1  
05.05.2002 9,0   0,0     9 1018,6     1  
06.05.2002 9,4   0,0     9 1022,2     1  
07.05.2002 9,3   0,0     9 1022,0     1  
08.05.2002 9,9   0,0     2 1019,9     1  
09.05.2002 13,2   0,0     3 1018,6     1  
10.05.2002 14,8   0,0     1 1015,6     1  
11.05.2002 15,1   0,0     1 1009,8     1  
12.05.2002 9,6   36,5     8 1011,3     1  
13.05.2002 8,4   0,0     8 1013,8     1  
14.05.2002 13,2   0,0     1 1009,9        
15.05.2002 9,8   3,7     0 1011,7     1  
16.05.2002 10,1   0,0     0 1013,2        
17.05.2002 10,5   0,0     7 1014,6     1  
18.05.2002 10,6   0,0     10 1013,7     1  
19.05.2002 13,3   0,0     0 1012,7        
20.05.2002 14,2   0,1     0 1013,9     1  
21.05.2002 14,7   0,0     2 1011,2     1  
22.05.2002 15,6   0,0     1 1008,0     1  
23.05.2002 13,3   13,5     0 1005,7     1  
24.05.2002 12,5   10,3     10 1007,3     1  
25.05.2002 14,7   1,5     1 1004,7     1  
26.05.2002 15,8   0,1     7 1010,7     1  
27.05.2002 11,9   1,5     0 1009,9     1  
28.05.2002 11,5   2,3     0 1011,9     1  
29.05.2002 12,5   0,1     1 1010,7        
30.05.2002 11,4   1,4     0 1012,0        
31.05.2002 9,4   9,0     0 1013,5     1  
Avrg/Sum 11,4   98,9     3,4 1012,4     25